createdAt,value
2017-10-03T00:01:43.268Z,15.83
2017-10-03T00:04:09.047Z,15.83
2017-10-03T00:06:34.804Z,15.77
2017-10-03T00:09:00.583Z,15.77
2017-10-03T00:11:26.336Z,15.78
2017-10-03T00:13:52.136Z,15.79
2017-10-03T00:16:17.890Z,15.78
2017-10-03T00:18:43.649Z,15.75
2017-10-03T00:21:09.522Z,15.76
2017-10-03T00:23:35.271Z,15.68
2017-10-03T00:26:01.026Z,15.70
2017-10-03T00:28:26.883Z,15.62
2017-10-03T00:30:52.687Z,15.57
2017-10-03T00:33:18.473Z,15.53
2017-10-03T00:35:44.243Z,15.46
2017-10-03T00:38:10.009Z,15.47
2017-10-03T00:40:35.803Z,15.50
2017-10-03T00:43:01.556Z,15.51
2017-10-03T00:45:27.320Z,15.52
2017-10-03T00:47:53.117Z,15.50
2017-10-03T00:50:18.863Z,15.51
2017-10-03T00:52:44.627Z,15.45
2017-10-03T00:55:10.480Z,15.44
2017-10-03T00:57:36.319Z,15.41
2017-10-03T01:00:02.090Z,15.40
2017-10-03T01:02:27.890Z,15.42
2017-10-03T01:04:53.759Z,15.46
2017-10-03T01:07:19.602Z,15.45
2017-10-03T01:09:45.368Z,15.45
2017-10-03T01:12:11.139Z,15.45
2017-10-03T01:14:36.907Z,15.51
2017-10-03T01:17:02.667Z,15.55
2017-10-03T01:19:28.451Z,15.60
2017-10-03T01:21:54.227Z,15.68
2017-10-03T01:24:20.022Z,15.63
2017-10-03T01:26:45.794Z,15.55
2017-10-03T01:29:11.586Z,15.58
2017-10-03T01:31:37.350Z,15.61
2017-10-03T01:34:03.094Z,15.61
2017-10-03T01:36:28.894Z,15.63
2017-10-03T01:38:54.666Z,15.60
2017-10-03T01:41:20.495Z,15.61
2017-10-03T01:43:46.285Z,15.60
2017-10-03T01:46:12.022Z,15.55
2017-10-03T01:48:37.766Z,15.52
2017-10-03T01:51:03.615Z,15.55
2017-10-03T01:53:29.362Z,15.58
2017-10-03T01:55:55.167Z,15.57
2017-10-03T01:58:20.930Z,15.58
2017-10-03T02:00:46.730Z,15.64
2017-10-03T02:03:12.495Z,15.65
2017-10-03T02:05:38.243Z,15.66
2017-10-03T02:08:04.052Z,15.74
2017-10-03T02:10:29.882Z,15.71
2017-10-03T02:12:55.677Z,15.80
2017-10-03T02:15:21.435Z,15.80
2017-10-03T02:17:47.218Z,15.84
2017-10-03T02:20:12.986Z,15.86
2017-10-03T02:22:38.764Z,15.92
2017-10-03T02:25:04.574Z,15.92
2017-10-03T02:27:30.366Z,15.95
2017-10-03T02:29:56.115Z,16.00
2017-10-03T02:32:21.902Z,15.99
2017-10-03T02:34:47.674Z,16.03
2017-10-03T02:37:13.415Z,16.09
2017-10-03T02:39:39.315Z,16.11
2017-10-03T02:42:05.099Z,16.10
2017-10-03T02:44:30.843Z,16.09
2017-10-03T02:46:56.600Z,16.10
2017-10-03T02:49:22.424Z,16.09
2017-10-03T02:51:48.180Z,16.04
2017-10-03T02:54:13.994Z,16.03
2017-10-03T02:56:39.734Z,16.04
2017-10-03T02:59:05.482Z,16.02
2017-10-03T03:01:31.274Z,16.02
2017-10-03T03:03:57.062Z,16.02
2017-10-03T03:06:22.858Z,16.02
2017-10-03T03:08:48.670Z,15.99
2017-10-03T03:11:14.507Z,16.01
2017-10-03T03:13:40.258Z,16.01
2017-10-03T03:16:06.112Z,16.02
2017-10-03T03:18:31.908Z,16.06
2017-10-03T03:20:57.739Z,16.06
2017-10-03T03:23:23.541Z,16.03
2017-10-03T03:25:49.398Z,16.00
2017-10-03T03:28:15.163Z,15.74
2017-10-03T03:30:41.019Z,15.08
2017-10-03T03:33:06.835Z,14.62
2017-10-03T03:35:32.640Z,14.27
2017-10-03T03:37:58.402Z,14.02
2017-10-03T03:40:24.187Z,13.87
2017-10-03T03:42:50.035Z,13.84
2017-10-03T03:45:15.804Z,13.73
2017-10-03T03:47:41.567Z,13.70
2017-10-03T03:50:07.351Z,13.65
2017-10-03T03:52:33.139Z,13.48
2017-10-03T03:54:58.987Z,13.55
2017-10-03T03:57:24.826Z,13.52
2017-10-03T03:59:50.635Z,13.55
2017-10-03T04:02:16.430Z,13.45
2017-10-03T04:04:42.295Z,13.27
2017-10-03T04:07:08.083Z,13.17
2017-10-03T04:09:33.834Z,12.99
2017-10-03T04:11:59.607Z,12.98
2017-10-03T04:14:25.382Z,12.93
2017-10-03T04:16:51.139Z,12.89
2017-10-03T04:19:16.927Z,12.86
2017-10-03T04:21:42.682Z,12.88
2017-10-03T04:24:08.462Z,12.89
2017-10-03T04:26:34.375Z,12.82
2017-10-03T04:29:00.155Z,12.83
2017-10-03T04:31:25.922Z,12.76
2017-10-03T04:33:51.680Z,12.72
2017-10-03T04:36:17.495Z,12.63
2017-10-03T04:38:43.270Z,12.69
2017-10-03T04:41:09.143Z,12.72
2017-10-03T04:43:34.914Z,12.81
2017-10-03T04:46:00.712Z,12.73
2017-10-03T04:48:26.463Z,12.65
2017-10-03T04:50:52.337Z,12.63
2017-10-03T04:53:18.114Z,12.54
2017-10-03T04:55:43.871Z,12.55
2017-10-03T04:58:09.671Z,12.63
2017-10-03T05:00:35.527Z,12.67
2017-10-03T05:03:01.301Z,12.63
2017-10-03T05:05:27.044Z,12.55
2017-10-03T05:07:52.819Z,12.58
2017-10-03T05:10:18.622Z,12.45
2017-10-03T05:12:44.399Z,12.32
2017-10-03T05:15:10.148Z,12.25
2017-10-03T05:17:35.962Z,12.28
2017-10-03T05:20:01.762Z,12.27
2017-10-03T05:22:27.542Z,12.26
2017-10-03T05:24:53.298Z,12.27
2017-10-03T05:29:49.358Z,12.24
2017-10-03T05:32:15.147Z,12.24
2017-10-03T05:34:40.949Z,12.12
2017-10-03T05:37:06.694Z,11.98
2017-10-03T05:39:32.450Z,11.97
2017-10-03T05:41:58.236Z,12.02
2017-10-03T05:44:23.995Z,11.97
2017-10-03T05:46:49.742Z,11.90
2017-10-03T05:49:15.542Z,11.89
2017-10-03T05:51:41.294Z,11.93
2017-10-03T05:54:07.042Z,11.99
2017-10-03T05:56:32.914Z,12.07
2017-10-03T05:58:58.770Z,12.07
2017-10-03T06:01:24.517Z,12.03
2017-10-03T06:03:50.346Z,12.01
2017-10-03T06:06:16.140Z,11.97
2017-10-03T06:08:41.889Z,11.96
2017-10-03T06:11:07.690Z,11.94
2017-10-03T06:13:33.479Z,11.95
2017-10-03T06:15:59.247Z,11.95
2017-10-03T06:18:25.039Z,11.99
2017-10-03T06:20:50.890Z,12.05
2017-10-03T06:23:16.674Z,12.05
2017-10-03T06:25:42.484Z,12.07
2017-10-03T06:28:08.234Z,12.10
2017-10-03T06:30:34.072Z,12.16
2017-10-03T06:32:59.838Z,12.30
2017-10-03T06:35:25.582Z,12.50
2017-10-03T06:37:51.367Z,12.65
2017-10-03T06:40:17.130Z,12.70
2017-10-03T06:42:42.974Z,12.66
2017-10-03T06:45:08.775Z,12.70
2017-10-03T07:07:35.569Z,12.20
2017-10-03T07:10:24.759Z,12.22
2017-10-03T07:13:21.654Z,12.28
2017-10-03T07:32:39.398Z,12.15
2017-10-03T07:51:51.040Z,12.20
2017-10-03T07:54:40.314Z,12.23
2017-10-03T07:57:37.342Z,12.34
2017-10-03T08:00:34.675Z,12.43
2017-10-03T08:03:31.707Z,12.43
2017-10-03T08:06:29.064Z,12.66
2017-10-03T08:15:37.140Z,13.75
2017-10-03T08:35:12.058Z,13.33
2017-10-03T08:54:20.055Z,14.07
2017-10-03T09:00:07.219Z,14.22
2017-10-03T09:19:43.274Z,16.23
2017-10-03T09:38:51.736Z,17.16
2017-10-03T09:44:38.423Z,16.30
2017-10-03T09:47:27.646Z,16.03
2017-10-03T09:50:25.460Z,15.97
2017-10-03T09:53:22.565Z,15.89
2017-10-03T09:56:20.359Z,16.19
2017-10-03T09:59:18.326Z,17.95
2017-10-03T10:08:25.887Z,17.13
2017-10-03T10:11:14.892Z,17.13
2017-10-03T10:14:12.806Z,16.60
2017-10-03T10:17:09.743Z,16.00
2017-10-03T10:20:06.840Z,15.51
2017-10-03T10:29:55.899Z,18.69
2017-10-03T10:32:45.374Z,18.83
2017-10-03T10:35:42.800Z,18.00
2017-10-03T10:51:30.651Z,18.29
2017-10-03T11:11:02.416Z,20.22
2017-10-03T11:30:05.766Z,17.48
2017-10-03T11:33:02.390Z,17.68
2017-10-03T11:52:21.792Z,16.39
2017-10-03T11:55:18.682Z,16.38
2017-10-03T12:14:31.323Z,17.07
2017-10-03T12:17:29.296Z,16.75
2017-10-03T12:19:55.051Z,16.49
2017-10-03T12:22:43.707Z,16.23
2017-10-03T12:25:41.094Z,16.06
2017-10-03T12:28:38.543Z,15.92
2017-10-03T12:31:35.050Z,15.97
2017-10-03T12:34:32.584Z,15.83
2017-10-03T12:37:29.112Z,15.60
2017-10-03T12:40:26.651Z,15.79
2017-10-03T12:42:52.451Z,16.76
2017-10-03T12:45:42.023Z,16.57
2017-10-03T12:48:39.442Z,16.25
2017-10-03T13:04:28.347Z,16.30
2017-10-03T13:07:17.236Z,16.22
2017-10-03T13:10:13.863Z,15.95
2017-10-03T13:13:11.218Z,15.94
2017-10-03T13:16:07.791Z,15.78
2017-10-03T13:25:56.122Z,15.82
2017-10-03T13:28:45.610Z,15.73
2017-10-03T13:47:53.709Z,15.68
2017-10-03T13:50:42.491Z,15.98
2017-10-03T13:53:39.052Z,16.63
2017-10-03T14:12:43.758Z,18.06
2017-10-03T14:31:52.283Z,16.25
2017-10-03T14:34:40.934Z,16.06
2017-10-03T14:57:02.751Z,18.97
2017-10-03T14:59:59.311Z,19.14
2017-10-03T15:19:04.143Z,18.42
2017-10-03T15:41:25.403Z,16.28
2017-10-03T15:44:22.651Z,16.13
2017-10-03T15:47:19.250Z,15.95
2017-10-03T16:00:00.686Z,15.55
2017-10-03T16:19:32.262Z,15.86
2017-10-03T16:21:58.043Z,15.61
2017-10-03T16:24:47.370Z,15.45
2017-10-03T16:27:44.945Z,15.13
2017-10-03T16:43:33.488Z,14.39
2017-10-03T16:46:22.558Z,14.30
2017-10-03T16:49:20.015Z,14.25
2017-10-03T16:52:17.367Z,14.26
2017-10-03T17:04:57.684Z,14.13
2017-10-03T17:07:47.008Z,14.11
2017-10-03T17:26:55.554Z,13.89
2017-10-03T17:29:44.450Z,13.81
2017-10-03T17:32:41.134Z,13.84
2017-10-03T17:35:37.747Z,13.89
2017-10-03T17:38:35.287Z,13.77
2017-10-03T17:41:32.787Z,13.54
2017-10-03T17:44:29.748Z,13.46
2017-10-03T17:47:26.490Z,13.46
2017-10-03T17:49:52.263Z,13.32
2017-10-03T17:52:41.707Z,13.20
2017-10-03T17:55:38.391Z,13.14
2017-10-03T17:58:35.110Z,13.08
2017-10-03T18:11:19.900Z,13.07
2017-10-03T18:30:51.686Z,12.81
2017-10-03T18:49:58.404Z,12.47
2017-10-03T18:52:55.730Z,12.39
2017-10-03T19:15:17.762Z,11.93
2017-10-03T19:17:43.559Z,11.73
2017-10-03T19:20:32.807Z,11.68
2017-10-03T19:39:41.241Z,11.47
2017-10-03T19:59:13.113Z,11.12
2017-10-03T20:01:38.885Z,11.04
2017-10-03T20:04:28.047Z,11.03
2017-10-03T20:07:25.476Z,10.96
2017-10-03T20:10:22.127Z,10.98
2017-10-03T20:23:06.683Z,10.98
2017-10-03T20:42:38.358Z,10.77
2017-10-03T20:45:04.184Z,10.61
2017-10-03T21:04:35.095Z,10.15
2017-10-03T21:07:00.848Z,10.24
2017-10-03T21:09:50.199Z,10.32
2017-10-03T21:12:47.015Z,10.38
2017-10-03T21:15:43.851Z,10.38
2017-10-03T21:28:28.402Z,10.54
2017-10-03T21:31:17.147Z,10.55
2017-10-03T21:50:25.409Z,10.22
2017-10-03T22:10:02.814Z,10.13
2017-10-03T22:12:28.605Z,10.20
2017-10-03T22:15:17.970Z,10.17
2017-10-03T22:18:14.686Z,10.07
2017-10-03T22:21:12.147Z,10.07
2017-10-03T22:24:09.468Z,9.99
2017-10-03T22:33:57.342Z,9.94
2017-10-03T22:36:46.123Z,9.94
2017-10-03T22:55:53.996Z,10.19
2017-10-03T23:15:25.334Z,10.13
2017-10-03T23:17:51.083Z,10.08
2017-10-03T23:20:40.159Z,10.03
2017-10-03T23:39:48.098Z,10.01
2017-10-03T23:59:20.060Z,10.01
